Time;durP1;ratioP1;P1;durP2;ratioP2;P2;SDS_P1;SDS_P2;PMS_P1;PMS_P2;Temp;Humidity;BMP_temperature;BMP_pressure;BME280_temperature;BME280_humidity;BME280_pressure;Samples;Min_cycle;Max_cycle;Signal;HPM_P1;HPM_P2
2022/08/03 00:01:06;;;;;;;4.82;2.88;;;21.30;99.90;;;;;;6060849;23;20015;-81
2022/08/03 00:03:33;;;;;;;4.65;2.67;;;21.30;99.90;;;;;;6060659;23;20026;-81
2022/08/03 00:06:00;;;;;;;5.70;2.72;;;21.20;99.90;;;;;;6060480;23;20445;-82
2022/08/03 00:08:27;;;;;;;7.53;2.90;;;21.20;99.90;;;;;;6060455;23;20023;-81
2022/08/03 00:29:58;;;;;;;6.53;2.60;;;21.10;99.90;;;;;;5813850;24;20102;-91
2022/08/03 00:32:25;;;;;;;5.22;2.80;;;21.10;99.90;;;;;;5845012;24;20029;-91
2022/08/03 00:34:52;;;;;;;5.38;2.88;;;21.10;99.90;;;;;;5969739;24;20056;-91
2022/08/03 00:37:19;;;;;;;6.07;2.97;;;21.00;99.90;;;;;;5977203;24;20036;-90
2022/08/03 00:39:46;;;;;;;4.75;2.75;;;21.00;99.90;;;;;;5976884;24;20476;-93
2022/08/03 00:42:13;;;;;;;8.07;2.92;;;21.00;99.90;;;;;;5953534;24;20100;-91
2022/08/03 00:44:41;;;;;;;4.65;2.60;;;21.00;99.90;;;;;;5954094;24;20024;-93
2022/08/03 00:47:10;;;;;;;7.00;3.08;;;20.90;99.90;;;;;;5977025;24;20059;-91
2022/08/03 00:49:37;;;;;;;8.50;2.72;;;20.90;99.90;;;;;;5976859;24;20084;-90
2022/08/03 00:52:05;;;;;;;7.38;3.22;;;20.90;99.90;;;;;;5976971;24;20028;-91
2022/08/03 00:54:32;;;;;;;6.15;3.00;;;20.90;99.90;;;;;;5976626;24;20028;-91
2022/08/03 00:56:59;;;;;;;4.93;2.80;;;20.90;99.90;;;;;;5933070;24;20029;-91
2022/08/03 00:59:29;;;;;;;10.65;3.03;;;20.90;99.90;;;;;;5976887;23;20079;-92
2022/08/03 01:01:59;;;;;;;5.75;2.83;;;20.90;99.90;;;;;;6025984;23;20031;-91
2022/08/03 01:04:29;;;;;;;7.05;2.80;;;20.80;99.90;;;;;;6002149;23;20035;-91
2022/08/03 01:07:05;;;;;;;4.60;2.40;;;20.80;99.90;;;;;;6004039;23;20028;-92
2022/08/03 01:09:38;;;;;;;5.53;3.00;;;20.80;99.90;;;;;;6003243;23;20095;-92
2022/08/03 01:12:10;;;;;;;5.72;2.60;;;20.80;99.90;;;;;;6041471;23;20109;-92
2022/08/03 01:14:45;;;;;;;6.68;3.33;;;20.80;99.90;;;;;;6059774;23;20023;-92
2022/08/03 01:17:19;;;;;;;7.70;3.10;;;20.80;99.90;;;;;;6058778;23;20023;-92
2022/08/03 01:19:52;;;;;;;6.53;3.25;;;20.80;99.90;;;;;;6060329;23;20446;-91
2022/08/03 01:30:44;;;;;;;5.72;2.95;;;20.70;99.90;;;;;;5921328;24;20841;-91
2022/08/03 01:33:15;;;;;;;6.30;2.65;;;20.70;99.90;;;;;;5943662;23;20084;-91
2022/08/03 01:35:43;;;;;;;;;;;20.70;99.90;;;;;;6039064;23;20423;-92
2022/08/03 01:38:13;;;;;;;4.68;2.80;;;20.70;99.90;;;;;;6058721;23;19921;-92
2022/08/03 01:40:41;;;;;;;7.07;2.83;;;20.70;99.90;;;;;;6059950;23;20458;-92
2022/08/03 01:43:16;;;;;;;7.18;2.88;;;20.70;99.90;;;;;;6059005;23;20401;-92
2022/08/03 01:45:48;;;;;;;5.90;2.75;;;20.60;99.90;;;;;;6060579;23;20026;-91
2022/08/03 01:48:33;;;;;;;6.93;3.10;;;20.60;99.90;;;;;;6058933;23;20022;-91
2022/08/03 01:51:01;;;;;;;8.88;3.05;;;20.60;99.90;;;;;;6059731;23;20023;-91
2022/08/03 01:53:28;;;;;;;8.00;2.97;;;20.60;99.90;;;;;;6060575;23;20027;-92
2022/08/03 01:55:55;;;;;;;5.30;2.80;;;20.60;99.90;;;;;;6060429;23;20027;-91
2022/08/03 01:58:24;;;;;;;6.20;2.83;;;20.60;99.90;;;;;;6060673;23;20015;-91
2022/08/03 02:00:54;;;;;;;4.85;2.80;;;20.60;99.90;;;;;;6059965;23;20475;-91
2022/08/03 02:03:22;;;;;;;5.95;2.60;;;20.50;99.90;;;;;;6058411;23;20030;-92
2022/08/03 02:05:49;;;;;;;7.72;3.13;;;20.50;99.90;;;;;;6059569;23;20085;-91
2022/08/03 02:08:18;;;;;;;6.43;2.63;;;20.50;99.90;;;;;;6060000;23;20027;-91
2022/08/03 02:10:46;;;;;;;5.18;2.65;;;20.50;99.90;;;;;;6059717;23;20025;-92
2022/08/03 02:13:15;;;;;;;7.88;2.80;;;20.50;99.90;;;;;;6059146;23;20026;-92
2022/08/03 02:15:43;;;;;;;5.47;2.67;;;20.40;99.90;;;;;;6060300;23;20073;-91
2022/08/03 02:18:12;;;;;;;6.82;2.83;;;20.50;99.90;;;;;;6060093;23;20515;-92
2022/08/03 02:20:41;;;;;;;5.03;2.90;;;20.40;99.90;;;;;;6059509;23;20434;-91
2022/08/03 02:23:08;;;;;;;5.05;2.60;;;20.40;99.90;;;;;;6060069;23;20041;-92
2022/08/03 02:25:39;;;;;;;7.28;3.10;;;20.40;99.90;;;;;;6058727;23;20714;-91
2022/08/03 02:28:08;;;;;;;4.22;2.47;;;20.40;99.90;;;;;;6058741;23;20393;-92
2022/08/03 02:30:38;;;;;;;4.93;2.80;;;20.40;99.90;;;;;;6060964;23;20022;-91
2022/08/03 02:33:07;;;;;;;5.80;2.70;;;20.40;99.90;;;;;;6061407;23;20097;-93
2022/08/03 02:35:36;;;;;;;5.57;2.72;;;20.30;99.90;;;;;;6061084;23;20334;-92
2022/08/03 02:38:05;;;;;;;4.88;2.53;;;20.30;99.90;;;;;;6061602;23;20023;-93
2022/08/03 02:40:33;;;;;;;6.90;2.72;;;20.30;99.90;;;;;;6059266;23;20088;-92
2022/08/03 02:43:05;;;;;;;6.18;3.00;;;20.30;99.90;;;;;;6061490;23;20096;-92
2022/08/03 02:45:33;;;;;;;6.85;2.58;;;20.30;99.90;;;;;;6061541;23;20029;-91
2022/08/03 02:48:02;;;;;;;7.00;2.75;;;20.30;99.90;;;;;;6061563;23;20199;-92
2022/08/03 02:50:32;;;;;;;6.03;2.55;;;20.30;99.90;;;;;;6060950;23;20019;-92
2022/08/03 02:53:01;;;;;;;7.57;2.80;;;20.20;99.90;;;;;;6061537;23;20019;-91
2022/08/03 02:55:29;;;;;;;7.55;2.83;;;20.20;99.90;;;;;;6061521;23;20022;-91
2022/08/03 02:57:57;;;;;;;5.20;2.75;;;20.20;99.90;;;;;;6061433;23;20094;-91
2022/08/03 03:00:25;;;;;;;5.97;2.95;;;20.20;99.90;;;;;;6060993;23;20019;-92
2022/08/03 03:02:52;;;;;;;7.28;2.85;;;20.20;99.90;;;;;;6061137;23;20046;-91
2022/08/03 03:05:19;;;;;;;5.03;2.80;;;20.20;99.90;;;;;;6061363;23;20327;-92
2022/08/03 03:07:46;;;;;;;5.30;2.78;;;20.20;99.90;;;;;;6061172;23;20042;-92
2022/08/03 03:10:15;;;;;;;6.20;2.45;;;20.20;99.90;;;;;;6061049;23;20023;-91
2022/08/03 03:12:43;;;;;;;5.93;2.72;;;20.10;99.90;;;;;;6061707;23;20041;-92
2022/08/03 03:15:11;;;;;;;4.22;2.53;;;20.10;99.90;;;;;;6059950;23;20022;-92
2022/08/03 03:17:39;;;;;;;6.97;2.50;;;20.10;99.90;;;;;;6060633;23;20021;-92
2022/08/03 03:20:08;;;;;;;7.05;2.63;;;20.10;99.90;;;;;;6059614;23;20042;-93
2022/08/03 03:22:36;;;;;;;4.45;2.55;;;20.10;99.90;;;;;;6059478;23;20078;-92
2022/08/03 03:25:03;;;;;;;8.63;3.00;;;20.10;99.90;;;;;;6061302;23;20094;-91
2022/08/03 03:27:33;;;;;;;8.57;3.28;;;20.10;99.90;;;;;;6059548;23;20026;-91
2022/08/03 03:30:00;;;;;;;6.03;3.00;;;20.10;99.90;;;;;;6061152;23;20019;-92
2022/08/03 03:32:27;;;;;;;8.57;3.00;;;20.10;99.90;;;;;;6060723;23;20341;-91
2022/08/03 03:34:55;;;;;;;4.40;2.50;;;20.00;99.90;;;;;;6061348;23;20019;-91
2022/08/03 03:37:22;;;;;;;6.07;2.63;;;20.00;99.90;;;;;;6061363;23;20030;-92
2022/08/03 03:39:49;;;;;;;5.80;2.72;;;20.00;99.90;;;;;;6060946;23;20073;-92
2022/08/03 03:42:16;;;;;;;5.35;3.05;;;20.00;99.90;;;;;;6060974;23;20027;-93
2022/08/03 03:44:45;;;;;;;5.47;2.58;;;20.00;99.90;;;;;;6061209;23;20057;-91
2022/08/03 03:47:12;;;;;;;5.82;2.70;;;20.00;99.90;;;;;;6061130;23;20026;-91
2022/08/03 03:49:39;;;;;;;6.82;2.90;;;20.00;99.90;;;;;;6059624;23;20049;-92
2022/08/03 03:52:06;;;;;;;4.30;2.60;;;20.00;99.90;;;;;;6061005;23;20027;-91
2022/08/03 03:54:41;;;;;;;7.75;3.00;;;20.00;99.90;;;;;;6061222;23;20108;-92
2022/08/03 03:57:09;;;;;;;8.38;5.20;;;20.00;99.90;;;;;;6060991;23;20472;-91
2022/08/03 03:59:38;;;;;;;9.45;4.40;;;20.00;99.90;;;;;;6060851;23;20380;-92
2022/08/03 04:02:07;;;;;;;7.60;3.70;;;20.00;99.90;;;;;;6060962;23;20065;-92
2022/08/03 04:13:39;;;;;;;9.30;3.30;;;20.00;99.90;;;;;;6060695;23;20026;-94
2022/08/03 04:16:08;;;;;;;7.13;3.37;;;19.80;99.90;;;;;;5973316;24;20362;-91
2022/08/03 04:18:38;;;;;;;5.68;2.72;;;20.00;99.90;;;;;;5949821;24;20044;-87
2022/08/03 04:21:08;;;;;;;4.47;2.63;;;20.00;99.90;;;;;;6056028;23;20023;-88
2022/08/03 04:23:38;;;;;;;6.40;3.10;;;20.00;99.90;;;;;;6061001;23;20025;-87
2022/08/03 04:26:08;;;;;;;6.43;3.50;;;20.00;99.90;;;;;;6061148;23;20029;-86
2022/08/03 04:28:36;;;;;;;7.63;3.20;;;20.00;99.90;;;;;;6060608;23;20029;-86
2022/08/03 04:31:04;;;;;;;9.73;2.72;;;20.00;99.90;;;;;;6060700;23;20039;-86
2022/08/03 04:33:32;;;;;;;10.32;3.47;;;20.00;99.90;;;;;;6060842;23;20022;-85
2022/08/03 04:36:03;;;;;;;6.93;3.13;;;20.00;99.90;;;;;;6061294;23;20094;-85
2022/08/03 04:38:32;;;;;;;9.00;3.42;;;20.00;99.90;;;;;;6061212;23;20046;-87
2022/08/03 04:40:59;;;;;;;9.63;4.40;;;20.00;99.90;;;;;;6060438;23;20015;-86
2022/08/03 04:43:27;;;;;;;10.13;3.92;;;20.10;99.90;;;;;;6061193;23;20221;-86
2022/08/03 04:45:55;;;;;;;10.80;4.88;;;20.10;99.90;;;;;;6061209;23;20019;-86
2022/08/03 04:48:22;;;;;;;12.82;4.40;;;20.10;99.90;;;;;;6061222;23;20098;-85
2022/08/03 04:50:48;;;;;;;10.50;4.75;;;20.20;99.90;;;;;;6060102;23;20049;-86
2022/08/03 04:53:17;;;;;;;9.88;5.40;;;20.20;99.90;;;;;;6061092;23;20105;-86
2022/08/03 04:55:44;;;;;;;13.63;5.47;;;20.30;99.90;;;;;;6059970;23;20445;-86
2022/08/03 04:58:11;;;;;;;13.32;5.75;;;20.30;99.90;;;;;;6059620;23;20627;-85
2022/08/03 05:00:38;;;;;;;11.73;5.00;;;20.30;99.90;;;;;;6060235;23;20024;-87
2022/08/03 05:03:05;;;;;;;13.73;6.20;;;20.40;99.90;;;;;;6061096;23;20178;-85
2022/08/03 05:05:32;;;;;;;11.07;5.45;;;20.50;99.90;;;;;;6060829;23;20026;-84
2022/08/03 05:07:59;;;;;;;13.30;5.93;;;20.50;99.90;;;;;;6060713;23;20021;-85
2022/08/03 05:10:27;;;;;;;15.52;5.82;;;20.60;99.90;;;;;;6060324;23;20093;-85
2022/08/03 05:12:54;;;;;;;9.18;5.70;;;20.60;99.90;;;;;;6061222;23;20061;-85
2022/08/03 05:15:21;;;;;;;16.20;5.95;;;20.70;99.90;;;;;;6061020;23;20026;-86
2022/08/03 05:17:49;;;;;;;13.40;6.00;;;20.70;99.90;;;;;;6061010;23;20019;-86
2022/08/03 05:20:15;;;;;;;10.13;6.20;;;20.80;99.90;;;;;;6060782;23;20453;-85
2022/08/03 05:22:42;;;;;;;14.93;6.53;;;20.80;99.90;;;;;;6060456;23;20029;-90
2022/08/03 05:25:11;;;;;;;13.52;6.22;;;20.90;99.90;;;;;;6059573;23;20030;-94
2022/08/03 05:27:43;;;;;;;14.52;6.30;;;20.90;99.90;;;;;;6060340;23;20019;-92
2022/08/03 05:30:10;;;;;;;17.52;6.40;;;21.00;99.90;;;;;;6059912;23;20023;-92
2022/08/03 05:32:37;;;;;;;10.68;5.85;;;21.00;99.90;;;;;;6060788;23;20101;-91
2022/08/03 05:35:05;;;;;;;15.02;6.05;;;21.10;99.90;;;;;;6060864;23;20023;-92
2022/08/03 05:37:34;;;;;;;11.73;6.80;;;21.10;99.90;;;;;;6060505;23;20019;-88
2022/08/03 05:40:01;;;;;;;10.00;5.88;;;21.20;99.90;;;;;;6059750;23;20023;-90
2022/08/03 05:42:28;;;;;;;12.48;5.50;;;21.20;99.90;;;;;;6058467;23;20031;-91
2022/08/03 05:44:57;;;;;;;13.73;6.32;;;21.30;99.90;;;;;;6060808;23;20019;-91
2022/08/03 05:47:24;;;;;;;12.50;5.80;;;21.30;99.90;;;;;;6060624;23;20019;-91
2022/08/03 05:49:54;;;;;;;14.15;6.53;;;21.40;99.90;;;;;;6059634;23;20019;-94
2022/08/03 05:52:21;;;;;;;12.15;6.03;;;21.50;99.90;;;;;;6058940;23;20027;-91
2022/08/03 05:54:48;;;;;;;11.07;5.88;;;21.60;99.90;;;;;;6059866;23;20535;-89
2022/08/03 05:57:15;;;;;;;17.63;5.88;;;21.70;99.90;;;;;;6060243;23;20469;-90
2022/08/03 05:59:42;;;;;;;13.02;5.82;;;21.80;99.90;;;;;;6059151;23;20023;-89
2022/08/03 06:02:10;;;;;;;11.32;6.20;;;21.90;99.90;;;;;;6059825;23;20022;-87
2022/08/03 06:04:37;;;;;;;10.98;6.07;;;22.00;99.90;;;;;;6060199;23;20015;-89
2022/08/03 06:07:04;;;;;;;9.20;5.80;;;22.10;99.90;;;;;;6061268;23;20046;-89
2022/08/03 06:09:31;;;;;;;10.57;5.65;;;22.10;99.90;;;;;;6060445;23;20023;-87
2022/08/03 06:11:58;;;;;;;12.27;5.55;;;22.30;99.90;;;;;;6060849;23;20042;-90
2022/08/03 06:14:25;;;;;;;9.02;5.47;;;22.40;99.90;;;;;;6060978;23;20022;-90
2022/08/03 06:16:52;;;;;;;10.82;6.10;;;22.60;99.90;;;;;;6059524;23;20392;-87
2022/08/03 06:19:20;;;;;;;9.80;4.95;;;22.70;99.90;;;;;;6060991;23;20385;-91
2022/08/03 06:21:47;;;;;;;8.60;5.38;;;22.80;99.90;;;;;;6061044;23;20631;-88
2022/08/03 06:24:15;;;;;;;10.88;5.32;;;23.00;99.90;;;;;;6061146;23;20023;-88
2022/08/03 06:26:42;;;;;;;12.52;5.18;;;23.10;99.90;;;;;;6059396;23;20172;-90
2022/08/03 06:29:09;;;;;;;8.40;5.43;;;23.20;99.90;;;;;;6061155;23;20023;-90
2022/08/03 06:31:36;;;;;;;9.63;5.20;;;23.30;99.90;;;;;;6061395;23;20019;-90
2022/08/03 06:34:03;;;;;;;10.00;5.10;;;23.40;99.90;;;;;;6061467;23;20057;-90
2022/08/03 06:36:32;;;;;;;8.82;5.03;;;23.50;99.90;;;;;;6060693;23;20042;-90
2022/08/03 06:38:59;;;;;;;9.25;5.10;;;23.50;99.90;;;;;;6061027;23;20019;-89
2022/08/03 06:41:26;;;;;;;9.93;4.80;;;23.60;99.90;;;;;;6061041;23;20054;-89
2022/08/03 06:43:53;;;;;;;8.13;4.82;;;23.70;99.90;;;;;;6059005;23;20077;-89
2022/08/03 06:46:21;;;;;;;9.65;4.22;;;23.70;99.90;;;;;;6059342;23;20050;-90
2022/08/03 06:48:48;;;;;;;11.88;4.53;;;23.80;99.90;;;;;;6061083;23;20027;-90
2022/08/03 06:51:15;;;;;;;10.93;4.65;;;23.80;99.90;;;;;;6061180;23;20488;-90
2022/08/03 06:53:43;;;;;;;10.10;4.47;;;23.80;99.90;;;;;;6061502;23;20019;-90
2022/08/03 06:56:10;;;;;;;7.47;3.88;;;23.80;99.90;;;;;;6061340;23;20019;-89
2022/08/03 06:58:37;;;;;;;10.05;4.40;;;23.90;99.90;;;;;;6060614;23;20023;-89
2022/08/03 07:01:04;;;;;;;9.00;4.10;;;24.00;99.90;;;;;;6060623;23;20019;-90
2022/08/03 07:03:31;;;;;;;8.52;4.55;;;24.00;99.90;;;;;;6061218;23;20043;-90
2022/08/03 07:05:58;;;;;;;6.93;4.25;;;24.10;99.90;;;;;;6057645;23;20035;-84
2022/08/03 07:08:25;;;;;;;9.63;4.45;;;24.10;99.90;;;;;;6060022;23;20023;-82
2022/08/03 07:10:53;;;;;;;11.35;4.32;;;24.10;99.90;;;;;;6060804;23;20046;-83
2022/08/03 07:13:20;;;;;;;13.35;5.00;;;24.20;99.90;;;;;;6061073;23;20019;-83
2022/08/03 07:15:47;;;;;;;9.40;4.28;;;24.30;99.90;;;;;;6061122;23;20043;-83
2022/08/03 07:18:14;;;;;;;6.72;3.65;;;24.40;99.90;;;;;;6061697;23;20053;-84
2022/08/03 07:20:41;;;;;;;10.40;4.38;;;24.40;99.90;;;;;;6059570;23;20541;-83
2022/08/03 07:23:08;;;;;;;10.48;3.88;;;24.50;99.90;;;;;;6061207;23;20055;-84
2022/08/03 07:25:35;;;;;;;8.38;4.43;;;24.50;99.90;;;;;;6061281;23;20441;-84
2022/08/03 07:28:04;;;;;;;8.32;4.00;;;24.60;99.90;;;;;;6060774;23;20473;-84
2022/08/03 07:30:31;;;;;;;8.38;3.80;;;24.60;99.90;;;;;;6060836;23;20022;-84
2022/08/03 07:32:58;;;;;;;9.95;3.90;;;24.60;99.90;;;;;;6060491;23;20461;-84
2022/08/03 07:35:25;;;;;;;7.80;3.65;;;24.60;99.90;;;;;;6060917;23;20018;-84
2022/08/03 07:37:52;;;;;;;8.88;3.38;;;24.60;99.90;;;;;;6060019;23;20026;-84
2022/08/03 07:40:19;;;;;;;8.18;3.67;;;24.70;99.90;;;;;;6082823;23;20085;-84
2022/08/03 07:42:46;;;;;;;6.93;3.17;;;24.70;99.90;;;;;;6060148;23;20114;-84
2022/08/03 07:45:14;;;;;;;6.10;3.00;;;24.70;99.90;;;;;;6061143;23;20481;-84
2022/08/03 07:47:41;;;;;;;6.80;3.50;;;24.80;99.90;;;;;;6060779;23;20433;-84
2022/08/03 07:50:09;;;;;;;5.60;2.97;;;24.90;99.90;;;;;;6060367;23;20065;-84
2022/08/03 07:52:48;;;;;;;6.95;2.83;;;24.90;99.90;;;;;;6060687;23;20106;-84
2022/08/03 07:55:16;;;;;;;10.15;3.00;;;25.00;99.90;;;;;;6061017;23;20027;-84
2022/08/03 07:57:43;;;;;;;9.80;2.80;;;25.00;99.90;;;;;;6060775;23;20400;-84
2022/08/03 08:00:16;;;;;;;9.55;3.05;;;25.10;99.90;;;;;;6060236;23;20073;-83
2022/08/03 08:02:43;;;;;;;7.45;2.85;;;25.10;99.90;;;;;;6060897;23;20014;-83
2022/08/03 08:05:11;;;;;;;9.73;3.00;;;25.10;99.90;;;;;;6060857;23;20046;-84
2022/08/03 08:07:39;;;;;;;6.03;2.38;;;25.20;99.90;;;;;;6060020;23;20101;-85
2022/08/03 08:10:08;;;;;;;7.65;2.58;;;25.10;97.90;;;;;;6060803;23;20101;-85
2022/08/03 08:12:35;;;;;;;9.55;2.58;;;25.10;99.40;;;;;;6060851;23;20019;-85
2022/08/03 08:15:03;;;;;;;7.45;2.45;;;25.10;98.30;;;;;;6060976;23;20034;-85
2022/08/03 08:17:31;;;;;;;9.32;2.80;;;25.20;99.90;;;;;;6060599;23;20050;-85
2022/08/03 08:19:58;;;;;;;4.55;2.28;;;25.20;98.70;;;;;;6059831;23;20057;-85
2022/08/03 08:22:25;;;;;;;5.45;2.20;;;25.20;98.60;;;;;;6060134;23;20038;-85
2022/08/03 08:24:52;;;;;;;5.03;2.35;;;25.40;98.70;;;;;;6060893;23;20025;-85
2022/08/03 08:27:19;;;;;;;7.13;2.35;;;25.40;97.10;;;;;;6059977;23;20085;-85
2022/08/03 08:29:46;;;;;;;8.27;2.15;;;25.40;97.80;;;;;;6060196;23;20023;-85
2022/08/03 08:32:14;;;;;;;5.55;1.90;;;25.50;97.50;;;;;;6059774;23;20086;-85
2022/08/03 08:34:43;;;;;;;9.50;2.50;;;25.50;97.40;;;;;;6060743;23;20023;-85
2022/08/03 08:37:10;;;;;;;4.75;2.35;;;25.60;97.90;;;;;;6060430;23;20027;-85
2022/08/03 08:39:37;;;;;;;4.45;2.50;;;25.60;97.40;;;;;;6060188;23;20023;-85
2022/08/03 08:42:04;;;;;;;6.35;2.60;;;25.60;96.90;;;;;;6060907;23;20097;-85
2022/08/03 08:44:31;;;;;;;6.32;2.45;;;25.60;95.10;;;;;;6060936;23;20018;-85
2022/08/03 08:47:03;;;;;;;7.35;2.45;;;25.70;95.70;;;;;;6060268;23;20051;-85
2022/08/03 08:49:30;;;;;;;7.80;2.33;;;25.70;95.70;;;;;;6060000;23;20457;-84
2022/08/03 08:51:58;;;;;;;7.60;2.47;;;25.70;93.90;;;;;;6060767;23;20077;-85
2022/08/03 08:54:26;;;;;;;5.28;2.10;;;25.80;94.20;;;;;;6060917;23;20182;-85
2022/08/03 08:56:53;;;;;;;6.13;2.25;;;25.90;94.70;;;;;;6060659;23;20019;-85
2022/08/03 08:59:20;;;;;;;6.75;2.10;;;25.90;95.10;;;;;;6060071;23;20051;-85
2022/08/03 09:01:47;;;;;;;5.68;2.35;;;25.90;94.70;;;;;;6060241;23;20467;-85
2022/08/03 09:04:14;;;;;;;5.85;2.30;;;26.00;95.50;;;;;;6060070;23;20023;-85
2022/08/03 09:06:41;;;;;;;6.10;2.67;;;26.10;94.60;;;;;;6060471;23;20018;-85
2022/08/03 09:09:10;;;;;;;7.50;2.50;;;26.20;93.90;;;;;;6060346;23;20050;-85
2022/08/03 09:11:36;;;;;;;6.80;2.22;;;26.20;94.50;;;;;;6060461;23;20031;-85
2022/08/03 09:14:04;;;;;;;7.32;2.15;;;26.20;94.40;;;;;;6059529;23;20030;-84
2022/08/03 09:16:31;;;;;;;6.22;2.20;;;26.30;92.20;;;;;;6059655;23;20023;-83
2022/08/03 09:19:12;;;;;;;5.90;2.30;;;26.40;93.00;;;;;;6059632;23;20050;-83
2022/08/03 09:21:39;;;;;;;6.07;2.30;;;26.50;92.10;;;;;;6060905;23;20023;-83
2022/08/03 09:24:07;;;;;;;5.50;2.50;;;26.40;93.30;;;;;;6060593;23;20019;-83
2022/08/03 09:26:36;;;;;;;8.63;2.50;;;26.40;90.20;;;;;;6060718;23;20026;-83
2022/08/03 09:29:04;;;;;;;6.35;2.40;;;26.40;90.80;;;;;;6059047;23;20102;-83
2022/08/03 09:31:33;;;;;;;6.10;2.20;;;26.40;90.70;;;;;;6060561;23;20018;-83
2022/08/03 09:34:02;;;;;;;8.80;2.65;;;26.50;89.90;;;;;;6060531;23;20019;-83
2022/08/03 09:36:36;;;;;;;6.88;2.33;;;26.60;90.10;;;;;;6060767;23;20076;-83
2022/08/03 09:39:05;;;;;;;8.02;2.38;;;26.70;90.00;;;;;;6060580;23;20042;-83
2022/08/03 09:41:32;;;;;;;9.98;2.30;;;26.60;91.00;;;;;;6061565;23;20101;-82
2022/08/03 09:44:00;;;;;;;4.75;2.30;;;26.60;92.00;;;;;;6061265;23;20019;-82
2022/08/03 09:46:30;;;;;;;7.05;2.33;;;26.60;90.00;;;;;;6061732;23;20449;-82
2022/08/03 09:49:11;;;;;;;7.10;2.60;;;26.70;92.40;;;;;;6060833;23;20018;-83
2022/08/03 09:51:38;;;;;;;6.47;2.70;;;26.70;92.20;;;;;;6061612;23;20026;-82
2022/08/03 09:54:05;;;;;;;6.40;2.50;;;26.80;91.90;;;;;;6061839;23;20270;-82
2022/08/03 09:56:43;;;;;;;4.82;2.60;;;26.80;91.00;;;;;;6061711;23;20098;-82
2022/08/03 09:59:13;;;;;;;9.98;2.88;;;26.80;90.90;;;;;;6060146;23;20600;-82
2022/08/03 10:01:41;;;;;;;8.98;2.25;;;26.80;92.10;;;;;;6061324;23;20034;-82
2022/08/03 10:04:13;;;;;;;6.00;2.20;;;26.80;90.40;;;;;;6061522;23;20025;-82
2022/08/03 10:06:40;;;;;;;5.55;1.92;;;26.90;91.40;;;;;;6061533;23;20073;-82
2022/08/03 10:09:09;;;;;;;6.70;2.20;;;26.80;89.10;;;;;;6060983;23;20023;-82
2022/08/03 10:11:36;;;;;;;5.28;1.95;;;26.90;89.30;;;;;;6060637;23;20023;-82
2022/08/03 10:14:05;;;;;;;6.60;2.15;;;26.90;89.20;;;;;;6061054;23;20349;-82
2022/08/03 10:16:35;;;;;;;7.43;2.13;;;27.00;88.90;;;;;;6061063;23;20050;-82
2022/08/03 10:19:04;;;;;;;7.63;1.90;;;26.90;88.10;;;;;;6060412;23;20023;-82
2022/08/03 10:21:34;;;;;;;9.55;3.08;;;27.00;89.40;;;;;;6061183;23;20429;-82
2022/08/03 10:24:03;;;;;;;8.95;2.63;;;27.00;89.60;;;;;;6061155;23;20019;-82
2022/08/03 10:26:31;;;;;;;8.82;2.35;;;27.10;88.80;;;;;;6059900;23;20457;-82
2022/08/03 10:29:00;;;;;;;8.60;2.28;;;27.10;89.60;;;;;;6060193;23;20019;-82
2022/08/03 10:31:32;;;;;;;5.40;2.17;;;27.10;88.70;;;;;;6061328;23;20098;-82
2022/08/03 10:34:01;;;;;;;5.28;1.70;;;27.10;87.30;;;;;;6061584;23;20396;-82
2022/08/03 10:36:31;;;;;;;5.88;1.73;;;27.10;87.40;;;;;;6061483;23;20049;-82
2022/08/03 10:38:59;;;;;;;4.30;1.60;;;27.10;88.20;;;;;;6059920;23;20030;-81
2022/08/03 10:41:32;;;;;;;7.35;2.30;;;27.20;89.20;;;;;;6061284;23;20465;-83
2022/08/03 10:44:03;;;;;;;10.90;1.90;;;27.10;88.50;;;;;;6059414;23;20069;-82
2022/08/03 10:46:30;;;;;;;8.77;1.95;;;27.00;87.30;;;;;;6060849;23;20046;-83
2022/08/03 10:48:57;;;;;;;8.05;2.05;;;27.00;86.40;;;;;;6059828;23;20094;-83
2022/08/03 10:51:30;;;;;;;12.52;2.17;;;26.90;85.90;;;;;;6060843;23;20399;-83
2022/08/03 10:53:58;;;;;;;6.82;1.80;;;27.00;90.40;;;;;;6061492;23;20086;-83
2022/08/03 10:59:58;;;;;;;11.48;1.85;;;27.00;87.80;;;;;;6059499;23;20108;-84
2022/08/03 11:03:01;;;;;;;6.63;1.88;;;27.10;90.50;;;;;;6060321;23;20034;-84
2022/08/03 11:05:30;;;;;;;6.65;1.80;;;27.20;88.80;;;;;;6060293;23;20434;-84
2022/08/03 11:08:24;;;;;;;4.57;1.50;;;27.20;87.90;;;;;;6060449;23;20453;-84
2022/08/03 11:10:53;;;;;;;5.43;2.05;;;27.20;85.80;;;;;;6060622;23;20442;-84
2022/08/03 11:13:22;;;;;;;6.38;1.50;;;27.20;85.90;;;;;;6060429;23;20025;-83
2022/08/03 11:15:52;;;;;;;6.00;1.50;;;27.20;87.80;;;;;;6060751;23;20047;-84
2022/08/03 11:18:19;;;;;;;8.52;1.83;;;27.30;90.20;;;;;;6060568;23;20069;-83
2022/08/03 11:20:48;;;;;;;6.07;1.50;;;27.30;85.60;;;;;;6060549;23;20018;-83
2022/08/03 11:23:15;;;;;;;5.80;1.50;;;27.40;86.70;;;;;;6059551;23;20070;-83
2022/08/03 11:26:12;;;;;;;5.32;1.50;;;27.30;84.50;;;;;;6060537;23;20022;-84
2022/08/03 11:28:40;;;;;;;9.25;2.15;;;27.30;86.30;;;;;;6059865;23;20353;-84
2022/08/03 11:31:46;;;;;;;7.90;1.88;;;27.40;86.30;;;;;;6060601;23;20026;-84
2022/08/03 11:34:15;;;;;;;5.88;1.50;;;27.40;84.90;;;;;;6059696;23;20110;-83
2022/08/03 11:37:23;;;;;;;4.47;1.50;;;27.40;85.90;;;;;;6060903;23;20361;-83
2022/08/03 11:39:53;;;;;;;9.73;1.73;;;27.40;86.00;;;;;;6058116;23;20019;-81
2022/08/03 11:42:40;;;;;;;8.48;1.70;;;27.40;85.00;;;;;;6060253;23;20077;-81
2022/08/03 11:45:08;;;;;;;4.75;1.60;;;27.30;85.70;;;;;;6060541;23;20019;-84
2022/08/03 11:47:38;;;;;;;4.28;1.60;;;27.40;86.60;;;;;;6059871;23;20098;-84
2022/08/03 11:50:06;;;;;;;9.98;1.83;;;27.30;85.50;;;;;;6059185;23;20105;-84
2022/08/03 11:52:39;;;;;;;4.65;1.60;;;27.30;86.00;;;;;;6060696;23;20047;-84
2022/08/03 11:55:10;;;;;;;5.80;2.00;;;27.20;84.80;;;;;;6060057;23;20019;-84
2022/08/03 11:57:38;;;;;;;4.22;1.33;;;27.20;84.80;;;;;;6060097;23;20027;-83
2022/08/03 12:00:23;;;;;;;10.23;1.90;;;27.20;83.10;;;;;;6059277;23;20186;-82
2022/08/03 12:03:00;;;;;;;8.57;1.90;;;27.20;85.00;;;;;;6060397;23;20038;-84
2022/08/03 12:05:52;;;;;;;8.18;1.80;;;27.20;84.10;;;;;;6061012;23;20022;-83
2022/08/03 12:08:30;;;;;;;7.22;1.42;;;27.10;85.90;;;;;;6060289;23;20043;-85
2022/08/03 12:10:58;;;;;;;13.40;1.90;;;27.10;87.60;;;;;;6060130;23;20106;-85
2022/08/03 12:13:25;;;;;;;6.20;1.60;;;27.10;88.80;;;;;;6058710;23;20042;-84
2022/08/03 12:15:56;;;;;;;5.03;1.67;;;27.20;87.00;;;;;;6060360;23;20360;-86
2022/08/03 12:18:24;;;;;;;3.60;1.63;;;27.40;86.80;;;;;;6059304;23;20033;-85
2022/08/03 12:20:53;;;;;;;6.30;1.48;;;27.40;85.20;;;;;;6060460;23;20515;-85
2022/08/03 12:23:20;;;;;;;6.57;1.73;;;27.50;85.50;;;;;;6060013;23;20019;-87
2022/08/03 12:25:47;;;;;;;4.93;1.50;;;27.50;86.50;;;;;;6058298;23;20053;-87
2022/08/03 12:28:17;;;;;;;4.80;1.70;;;27.40;84.60;;;;;;6058459;23;20046;-87
2022/08/03 12:30:47;;;;;;;4.97;1.47;;;27.50;82.20;;;;;;6057235;23;20046;-88
2022/08/03 12:33:18;;;;;;;6.82;1.40;;;27.60;83.30;;;;;;6057868;23;20023;-88
2022/08/03 12:35:46;;;;;;;7.40;1.90;;;27.50;83.00;;;;;;6057109;23;20353;-87
2022/08/03 12:38:13;;;;;;;7.13;1.83;;;27.50;84.60;;;;;;6057823;23;20097;-87
2022/08/03 12:40:41;;;;;;;6.50;1.50;;;27.50;84.70;;;;;;6057136;23;20077;-85
2022/08/03 12:43:12;;;;;;;7.00;1.85;;;27.50;85.10;;;;;;6057948;23;20049;-85
2022/08/03 12:45:39;;;;;;;6.95;1.73;;;27.50;84.40;;;;;;6058653;23;20045;-85
2022/08/03 12:48:09;;;;;;;5.88;1.55;;;27.40;83.00;;;;;;6056267;23;20065;-85
2022/08/03 12:50:40;;;;;;;5.55;1.63;;;27.40;82.20;;;;;;6059707;23;20358;-83
2022/08/03 12:53:09;;;;;;;3.93;1.40;;;27.30;81.10;;;;;;6060230;23;20087;-84
2022/08/03 12:55:36;;;;;;;7.00;1.45;;;27.30;81.50;;;;;;6059553;23;20283;-83
2022/08/03 12:58:05;;;;;;;4.47;1.77;;;27.20;80.50;;;;;;6057642;23;20034;-88
2022/08/03 13:00:32;;;;;;;4.40;1.63;;;27.20;83.30;;;;;;6059759;23;20057;-87
2022/08/03 13:03:01;;;;;;;11.23;2.03;;;27.20;86.30;;;;;;6060403;23;20069;-86
2022/08/03 13:05:28;;;;;;;6.65;1.63;;;27.20;86.40;;;;;;6060226;23;20030;-84
2022/08/03 13:07:57;;;;;;;6.38;1.60;;;27.30;83.70;;;;;;6057769;23;20031;-86
2022/08/03 13:10:31;;;;;;;8.07;1.50;;;27.30;84.70;;;;;;6059088;23;20023;-86
2022/08/03 13:13:01;;;;;;;5.63;1.55;;;27.30;84.50;;;;;;6059095;23;20083;-85
2022/08/03 13:15:28;;;;;;;6.22;1.48;;;27.30;82.70;;;;;;6060129;23;20038;-86
2022/08/03 13:17:56;;;;;;;6.88;1.77;;;27.30;82.30;;;;;;6060416;23;20400;-88
2022/08/03 13:20:23;;;;;;;5.38;1.48;;;27.30;83.90;;;;;;6056703;23;20342;-88
2022/08/03 13:22:51;;;;;;;6.78;1.50;;;27.40;83.90;;;;;;6058785;23;20022;-88
2022/08/03 13:25:20;;;;;;;5.65;1.73;;;27.50;83.10;;;;;;6059786;23;20349;-87
2022/08/03 13:27:47;;;;;;;4.22;1.88;;;27.50;80.80;;;;;;6059597;23;20050;-88
2022/08/03 13:30:15;;;;;;;12.35;2.22;;;27.50;80.10;;;;;;6058978;23;20092;-88
2022/08/03 13:32:42;;;;;;;8.80;1.90;;;27.50;82.10;;;;;;6059439;23;20389;-86
2022/08/03 13:35:10;;;;;;;10.48;2.17;;;27.50;81.60;;;;;;6060403;23;20350;-79